Time;durP1;ratioP1;P1;durP2;ratioP2;P2;SDS_P1;SDS_P2;PMS_P1;PMS_P2;Temp;Humidity;BMP_temperature;BMP_pressure;BME280_temperature;BME280_humidity;BME280_pressure;Samples;Min_cycle;Max_cycle;Signal;HPM_P1;HPM_P2
2022/08/19 00:01:37;;;;;;;10.05;4.05;;;23.00;99.90;;;;;;5025859;28;20033;-79
2022/08/19 00:04:07;;;;;;;11.10;4.22;;;22.90;99.90;;;;;;5021445;28;20100;-80
2022/08/19 00:06:35;;;;;;;17.42;4.10;;;22.90;99.90;;;;;;5023945;28;20498;-80
2022/08/19 00:09:02;;;;;;;9.82;3.80;;;22.80;99.90;;;;;;5024750;28;20034;-82
2022/08/19 00:11:29;;;;;;;12.95;3.72;;;22.80;99.90;;;;;;5008398;28;20034;-80
2022/08/19 00:13:56;;;;;;;14.55;4.35;;;22.80;99.90;;;;;;4994870;28;20041;-81
2022/08/19 00:16:24;;;;;;;12.73;4.43;;;22.70;99.90;;;;;;5029141;28;20032;-81
2022/08/19 00:18:50;;;;;;;14.85;4.07;;;22.50;99.90;;;;;;5030991;28;20065;-79
2022/08/19 00:21:15;;;;;;;12.57;4.10;;;22.50;99.90;;;;;;5030048;28;20493;-80
2022/08/19 00:23:42;;;;;;;13.13;3.95;;;22.40;99.90;;;;;;5028428;28;20058;-79
2022/08/19 00:26:10;;;;;;;9.57;3.85;;;22.30;99.90;;;;;;5013518;28;20033;-78
2022/08/19 00:28:36;;;;;;;9.52;4.13;;;22.30;99.90;;;;;;5030767;28;20033;-80
2022/08/19 00:31:04;;;;;;;13.32;4.03;;;22.20;99.90;;;;;;5029389;28;20026;-78
2022/08/19 00:33:32;;;;;;;12.77;4.15;;;22.10;99.90;;;;;;5030909;28;20045;-78
2022/08/19 00:36:04;;;;;;;13.10;4.50;;;22.10;99.90;;;;;;5015069;28;20038;-79
2022/08/19 00:38:30;;;;;;;10.70;4.57;;;22.00;99.90;;;;;;5031434;28;20026;-80
2022/08/19 00:40:56;;;;;;;14.43;3.63;;;21.90;99.90;;;;;;4995780;28;20034;-79
2022/08/19 00:43:25;;;;;;;13.10;3.72;;;21.80;99.90;;;;;;5030150;28;20021;-82
2022/08/19 00:45:52;;;;;;;12.40;4.78;;;21.80;99.90;;;;;;5004349;28;20021;-80
2022/08/19 00:48:19;;;;;;;15.02;4.63;;;21.70;99.90;;;;;;5022231;28;20030;-79
2022/08/19 00:50:47;;;;;;;11.18;4.13;;;21.70;99.90;;;;;;5030834;28;20002;-79
2022/08/19 00:53:17;;;;;;;10.00;4.20;;;21.70;99.90;;;;;;5009593;28;20041;-78
2022/08/19 00:55:47;;;;;;;11.55;4.03;;;21.80;99.90;;;;;;5029384;28;20030;-80
2022/08/19 00:58:17;;;;;;;10.43;3.58;;;21.90;99.90;;;;;;5029575;28;20057;-78
2022/08/19 01:00:44;;;;;;;18.02;4.75;;;21.80;99.90;;;;;;5028204;28;20026;-80
2022/08/19 01:03:13;;;;;;;11.73;4.55;;;21.80;99.90;;;;;;5025064;28;20026;-79
2022/08/19 01:05:41;;;;;;;9.30;4.43;;;21.70;99.90;;;;;;5021134;28;20034;-79
2022/08/19 01:08:07;;;;;;;9.75;3.63;;;21.60;99.90;;;;;;5020314;28;20030;-78
2022/08/19 01:10:41;;;;;;;10.82;4.40;;;21.50;99.90;;;;;;5023675;28;20029;-80
2022/08/19 01:13:08;;;;;;;17.90;4.65;;;21.50;99.90;;;;;;5023254;28;20065;-80
2022/08/19 01:15:46;;;;;;;15.15;4.32;;;21.50;99.90;;;;;;5019760;28;20022;-80
2022/08/19 01:18:14;;;;;;;11.15;4.82;;;21.40;99.90;;;;;;5020715;28;20033;-81
2022/08/19 01:20:41;;;;;;;14.65;4.55;;;21.30;99.90;;;;;;5019894;28;20015;-80
2022/08/19 01:23:07;;;;;;;10.90;4.65;;;21.20;99.90;;;;;;5024260;28;20036;-79
2022/08/19 01:25:49;;;;;;;7.97;3.70;;;21.20;99.90;;;;;;5027470;28;20290;-78
2022/08/19 01:28:27;;;;;;;14.95;4.38;;;21.20;99.90;;;;;;5026462;28;20030;-77
2022/08/19 01:30:55;;;;;;;11.80;3.75;;;21.40;99.90;;;;;;5022644;28;20478;-80
2022/08/19 01:33:21;;;;;;;17.92;3.92;;;21.50;99.90;;;;;;5023011;28;20034;-79
2022/08/19 01:35:50;;;;;;;14.05;4.10;;;21.50;99.90;;;;;;5001300;28;20041;-80
2022/08/19 01:38:22;;;;;;;11.75;3.50;;;21.60;99.90;;;;;;5020992;28;20022;-79
2022/08/19 01:40:48;;;;;;;13.20;4.15;;;21.60;99.90;;;;;;5020977;28;20061;-79
2022/08/19 01:43:14;;;;;;;7.63;3.53;;;21.70;99.90;;;;;;5022824;28;20022;-79
2022/08/19 01:45:40;;;;;;;13.15;3.45;;;21.70;99.90;;;;;;5006032;28;20504;-80
2022/08/19 01:48:07;;;;;;;11.02;3.90;;;21.90;99.90;;;;;;5007080;28;20029;-82
2022/08/19 01:50:34;;;;;;;8.43;3.50;;;21.80;99.90;;;;;;5023784;28;20034;-80
2022/08/19 01:53:02;;;;;;;10.13;3.33;;;21.90;99.90;;;;;;5024846;28;20444;-79
2022/08/19 01:55:28;;;;;;;6.63;3.40;;;21.90;99.90;;;;;;5023196;28;20042;-78
2022/08/19 01:57:59;;;;;;;9.57;3.88;;;21.90;99.90;;;;;;5024580;28;20057;-79
2022/08/19 02:00:27;;;;;;;10.40;3.40;;;21.90;99.90;;;;;;5036720;28;20018;-80
2022/08/19 02:02:53;;;;;;;11.07;3.80;;;21.90;99.90;;;;;;5037369;28;20026;-79
2022/08/19 02:05:21;;;;;;;16.38;4.35;;;21.80;99.90;;;;;;5020834;28;20022;-80
2022/08/19 02:07:47;;;;;;;14.40;3.67;;;21.70;99.90;;;;;;5021326;28;20022;-80
2022/08/19 02:10:20;;;;;;;14.93;4.18;;;21.60;99.90;;;;;;5038258;28;20089;-79
2022/08/19 02:12:47;;;;;;;11.50;4.30;;;21.40;99.90;;;;;;5011190;28;20033;-82
2022/08/19 02:15:13;;;;;;;9.10;3.85;;;21.20;99.90;;;;;;5028989;28;20478;-79
2022/08/19 02:17:39;;;;;;;11.20;3.70;;;21.20;99.90;;;;;;5029414;28;20034;-79
2022/08/19 02:20:07;;;;;;;8.77;3.63;;;21.10;99.90;;;;;;5009878;28;20046;-81
2022/08/19 02:22:33;;;;;;;13.15;4.03;;;21.10;99.90;;;;;;5026692;28;20087;-80
2022/08/19 02:24:59;;;;;;;11.23;3.60;;;21.10;99.90;;;;;;4995207;28;20033;-80
2022/08/19 02:27:26;;;;;;;12.35;4.00;;;21.00;99.90;;;;;;5030464;28;20033;-79
2022/08/19 02:29:52;;;;;;;9.10;3.63;;;21.00;99.90;;;;;;5027618;28;20052;-79
2022/08/19 02:32:19;;;;;;;12.15;3.70;;;21.00;99.90;;;;;;5028901;28;20034;-81
2022/08/19 02:34:46;;;;;;;8.65;4.20;;;20.90;99.90;;;;;;5025017;28;20032;-80
2022/08/19 02:39:57;;;;;;;12.52;4.38;;;20.90;99.90;;;;;;5022471;28;20057;-80
2022/08/19 02:42:24;;;;;;;13.25;4.30;;;20.90;99.90;;;;;;5005545;28;20057;-79
2022/08/19 02:44:50;;;;;;;13.93;3.75;;;20.90;99.90;;;;;;5023985;28;20033;-81
2022/08/19 02:47:18;;;;;;;18.13;4.10;;;20.90;99.90;;;;;;5030151;28;20034;-79
2022/08/19 02:49:45;;;;;;;18.13;4.40;;;20.90;99.90;;;;;;5029922;28;20139;-79
2022/08/19 02:52:11;;;;;;;6.88;3.38;;;20.90;99.90;;;;;;5032706;28;20021;-79
2022/08/19 02:54:38;;;;;;;15.20;4.95;;;20.90;99.90;;;;;;5011936;28;20036;-79
2022/08/19 02:57:05;;;;;;;8.93;4.38;;;21.20;99.90;;;;;;5029581;28;20041;-80
2022/08/19 02:59:32;;;;;;;11.90;4.28;;;21.40;99.90;;;;;;5003983;28;20556;-80
2022/08/19 03:01:58;;;;;;;13.02;4.10;;;21.50;99.90;;;;;;4989540;28;20089;-81
2022/08/19 03:04:24;;;;;;;11.88;3.83;;;21.50;99.90;;;;;;5005863;28;20035;-79
2022/08/19 03:06:51;;;;;;;12.77;4.93;;;21.50;99.90;;;;;;5006281;28;20104;-80
2022/08/19 03:09:19;;;;;;;9.95;3.88;;;21.60;99.90;;;;;;5029045;28;20045;-78
2022/08/19 03:11:45;;;;;;;11.60;4.18;;;21.60;99.90;;;;;;5004472;28;20061;-79
2022/08/19 03:14:12;;;;;;;10.23;4.00;;;21.80;99.90;;;;;;5023693;28;20460;-81
2022/08/19 03:16:45;;;;;;;14.10;4.68;;;21.90;99.90;;;;;;5020687;28;20030;-80
2022/08/19 03:19:12;;;;;;;10.07;4.15;;;22.10;99.90;;;;;;5002736;28;20041;-79
2022/08/19 03:21:38;;;;;;;16.20;3.90;;;22.20;99.90;;;;;;5022774;28;20502;-80
2022/08/19 03:24:07;;;;;;;14.55;3.90;;;22.20;99.90;;;;;;5019900;28;20050;-80
2022/08/19 03:26:37;;;;;;;9.57;3.83;;;22.20;99.90;;;;;;5022252;28;20026;-79
2022/08/19 03:29:05;;;;;;;12.45;4.25;;;22.20;99.90;;;;;;5022551;28;20022;-81
2022/08/19 03:31:31;;;;;;;15.20;4.07;;;22.20;99.90;;;;;;5027328;28;20036;-81
2022/08/19 03:33:57;;;;;;;11.90;4.03;;;22.20;99.90;;;;;;5023179;28;20073;-79
2022/08/19 03:36:25;;;;;;;11.43;4.00;;;22.20;99.90;;;;;;5005330;28;20034;-79
2022/08/19 03:38:54;;;;;;;12.27;4.28;;;22.20;99.90;;;;;;5030314;28;20037;-79
2022/08/19 03:41:30;;;;;;;12.93;4.30;;;22.10;99.90;;;;;;5013203;28;20089;-79
2022/08/19 03:43:57;;;;;;;13.32;4.35;;;22.10;99.90;;;;;;5004523;28;20073;-79
2022/08/19 03:46:28;;;;;;;18.02;4.38;;;22.10;99.90;;;;;;5023365;28;20030;-79
2022/08/19 03:48:56;;;;;;;13.73;4.55;;;22.10;99.90;;;;;;5021095;28;20040;-79
2022/08/19 03:51:35;;;;;;;14.45;3.97;;;22.00;99.90;;;;;;5018779;28;20022;-79
2022/08/19 03:54:05;;;;;;;14.77;4.55;;;22.00;99.90;;;;;;5017047;28;20105;-78
2022/08/19 03:56:33;;;;;;;14.45;4.88;;;21.90;99.90;;;;;;5020300;28;20030;-79
2022/08/19 03:59:00;;;;;;;10.77;4.90;;;21.80;99.90;;;;;;5019598;28;20025;-78
2022/08/19 04:01:28;;;;;;;18.98;5.10;;;21.70;99.90;;;;;;5019410;28;20045;-79
2022/08/19 04:03:55;;;;;;;15.70;5.03;;;21.60;99.90;;;;;;5018961;28;20494;-79
2022/08/19 04:06:24;;;;;;;14.35;5.18;;;21.50;99.90;;;;;;5000081;28;20371;-78
2022/08/19 04:08:53;;;;;;;13.02;4.90;;;21.50;99.90;;;;;;5017686;28;20033;-78
2022/08/19 04:11:23;;;;;;;13.38;4.78;;;21.50;99.90;;;;;;5017649;28;20034;-78
2022/08/19 04:13:50;;;;;;;12.18;4.45;;;21.50;99.90;;;;;;5016675;28;20037;-77
2022/08/19 04:16:20;;;;;;;19.02;5.25;;;21.50;99.90;;;;;;5009077;28;20028;-78
2022/08/19 04:18:47;;;;;;;14.05;4.78;;;21.40;99.90;;;;;;5009559;28;20029;-77
2022/08/19 04:21:19;;;;;;;16.17;4.68;;;21.40;99.90;;;;;;5020387;28;20030;-77
2022/08/19 04:23:45;;;;;;;13.60;4.85;;;21.40;99.90;;;;;;5021699;28;20026;-77
2022/08/19 04:26:21;;;;;;;14.68;5.40;;;21.40;99.90;;;;;;5023007;28;20045;-77
2022/08/19 04:28:48;;;;;;;10.50;4.43;;;21.40;99.90;;;;;;5007928;28;20060;-77
2022/08/19 04:31:17;;;;;;;13.05;4.82;;;21.50;99.90;;;;;;5005224;28;20026;-77
2022/08/19 04:33:42;;;;;;;19.95;4.75;;;21.50;99.90;;;;;;5022989;28;20041;-77
2022/08/19 04:36:16;;;;;;;15.77;5.10;;;21.60;99.90;;;;;;5021974;28;20029;-77
2022/08/19 04:38:41;;;;;;;16.75;5.30;;;21.70;99.90;;;;;;5021469;28;20030;-77
2022/08/19 04:43:51;;;;;;;15.97;5.27;;;21.80;99.90;;;;;;5019544;28;20238;-77
2022/08/19 04:46:19;;;;;;;15.60;4.78;;;21.90;99.90;;;;;;5017539;28;20132;-77
2022/08/19 04:48:46;;;;;;;16.33;4.80;;;22.00;99.90;;;;;;4998361;28;20486;-78
2022/08/19 04:51:13;;;;;;;20.65;4.80;;;22.10;99.90;;;;;;5017564;28;20505;-77
2022/08/19 04:53:40;;;;;;;11.88;4.85;;;22.20;99.90;;;;;;5017000;28;20149;-77
2022/08/19 04:56:14;;;;;;;12.57;5.07;;;22.30;99.90;;;;;;5016381;28;20032;-78
2022/08/19 04:58:42;;;;;;;13.32;4.97;;;22.40;99.90;;;;;;4998850;28;20050;-78
2022/08/19 05:01:20;;;;;;;13.70;5.10;;;22.40;99.90;;;;;;5018076;28;20489;-75
2022/08/19 05:03:45;;;;;;;18.67;4.80;;;22.40;99.90;;;;;;5021210;28;20025;-78
2022/08/19 05:06:14;;;;;;;10.18;5.40;;;22.50;99.90;;;;;;5023039;28;20466;-78
2022/08/19 05:08:42;;;;;;;15.02;4.88;;;22.60;99.90;;;;;;5022716;28;20026;-79
2022/08/19 05:11:30;;;;;;;20.58;5.70;;;22.70;99.90;;;;;;5002593;28;20516;-77
2022/08/19 05:13:56;;;;;;;15.43;5.05;;;22.80;99.90;;;;;;5012506;28;20113;-76
2022/08/19 05:16:23;;;;;;;19.65;5.85;;;22.90;99.90;;;;;;5021483;28;20072;-78
2022/08/19 05:24:20;;;;;;;;;;;23.20;99.90;;;;;;5020754;28;20112;-77
2022/08/19 05:26:48;;;;;;;17.23;6.93;;;23.30;99.90;;;;;;5019247;28;19955;-77
2022/08/19 05:29:16;;;;;;;13.40;6.75;;;23.30;99.90;;;;;;5017975;28;20113;-78
2022/08/19 05:31:42;;;;;;;19.50;8.38;;;23.40;99.90;;;;;;5006024;28;20028;-78
2022/08/19 05:34:09;;;;;;;16.30;8.25;;;23.50;99.90;;;;;;5020956;28;20033;-79
2022/08/19 05:36:41;;;;;;;17.23;8.68;;;23.60;99.90;;;;;;5044183;22;20089;-84
2022/08/19 05:39:08;;;;;;;22.50;9.00;;;23.60;99.90;;;;;;5019945;28;20019;-83
2022/08/19 05:41:34;;;;;;;14.15;8.35;;;23.60;99.90;;;;;;5037737;28;20037;-83
2022/08/19 05:44:09;;;;;;;16.58;8.77;;;23.60;99.90;;;;;;5000443;28;20026;-83
2022/08/19 05:46:38;;;;;;;15.07;9.32;;;23.60;99.90;;;;;;4997508;28;20031;-89
2022/08/19 05:49:06;;;;;;;16.33;9.07;;;23.60;99.90;;;;;;5004571;28;20049;-82
2022/08/19 05:51:33;;;;;;;14.05;9.25;;;23.60;99.90;;;;;;5020882;28;20015;-87
2022/08/19 06:20:20;;;;;;;12.00;8.30;;;24.10;99.90;;;;;;5731468;23;20041;-91
2022/08/19 06:22:51;;;;;;;18.25;8.40;;;24.10;99.90;;;;;;5001119;28;20087;-92
2022/08/19 06:25:17;;;;;;;17.20;8.20;;;24.20;99.90;;;;;;4971178;28;20025;-90
2022/08/19 06:27:44;;;;;;;11.65;7.82;;;24.20;99.90;;;;;;5202915;23;20031;-89
2022/08/19 06:30:11;;;;;;;17.95;8.20;;;24.30;99.90;;;;;;4985579;28;20042;-89
2022/08/19 06:32:40;;;;;;;12.85;8.20;;;24.40;99.90;;;;;;5038101;23;20029;-90
2022/08/19 06:35:14;;;;;;;15.63;8.70;;;24.40;99.90;;;;;;4984949;28;20045;-91
2022/08/19 06:48:18;;;;;;;11.18;8.13;;;24.70;99.90;;;;;;5003570;28;20046;-91
2022/08/19 06:58:57;;;;;;;15.07;7.60;;;25.20;99.90;;;;;;5051749;23;20081;-92
2022/08/19 07:01:24;;;;;;;14.90;7.68;;;25.30;99.90;;;;;;4987080;28;20030;-92
2022/08/19 07:03:53;;;;;;;17.52;7.32;;;25.40;99.90;;;;;;5494126;23;20037;-88
2022/08/19 07:09:07;;;;;;;13.02;7.45;;;25.40;99.90;;;;;;5956713;23;21033;-90
2022/08/19 07:11:34;;;;;;;10.50;7.13;;;25.40;99.90;;;;;;4981572;28;20064;-89
2022/08/19 07:14:01;;;;;;;10.95;6.75;;;25.40;99.90;;;;;;4963586;28;20095;-89
2022/08/19 07:16:29;;;;;;;15.40;6.78;;;25.50;99.90;;;;;;4977584;28;20046;-88
2022/08/19 07:18:59;;;;;;;10.25;6.72;;;25.70;99.90;;;;;;4973148;28;20046;-89
2022/08/19 07:21:28;;;;;;;10.40;6.05;;;25.80;99.90;;;;;;4964859;28;20045;-89
2022/08/19 07:23:55;;;;;;;12.35;5.95;;;26.10;99.90;;;;;;4983399;28;20044;-86
2022/08/19 07:26:27;;;;;;;12.77;6.18;;;26.30;99.90;;;;;;4977371;28;20031;-88
2022/08/19 07:28:54;;;;;;;9.00;6.00;;;26.40;99.90;;;;;;4978873;28;20033;-88
2022/08/19 07:31:22;;;;;;;10.55;6.30;;;26.50;99.90;;;;;;4994921;28;20029;-88
2022/08/19 07:33:50;;;;;;;14.23;6.00;;;26.60;99.90;;;;;;4981579;28;20026;-88
2022/08/19 07:36:19;;;;;;;8.82;5.85;;;26.70;99.90;;;;;;4985148;28;20041;-87
2022/08/19 07:38:47;;;;;;;9.85;6.20;;;26.90;99.90;;;;;;5001494;28;20085;-88
2022/08/19 07:41:20;;;;;;;17.02;6.65;;;27.00;99.90;;;;;;4999557;28;20023;-87
2022/08/19 07:43:46;;;;;;;20.77;8.13;;;27.20;99.90;;;;;;4998892;28;20022;-88
2022/08/19 07:46:16;;;;;;;16.83;8.60;;;27.30;99.90;;;;;;4988205;28;20030;-88
2022/08/19 07:48:46;;;;;;;8.52;5.47;;;27.40;99.90;;;;;;4989066;28;20034;-87
2022/08/19 07:51:14;;;;;;;17.58;6.63;;;27.60;99.90;;;;;;4989328;28;20022;-87
2022/08/19 07:53:40;;;;;;;10.50;6.35;;;27.50;99.90;;;;;;5009342;28;20045;-88
2022/08/19 07:56:06;;;;;;;17.95;6.13;;;27.40;99.90;;;;;;4992858;28;20082;-90
2022/08/19 07:58:34;;;;;;;15.40;6.15;;;27.40;99.90;;;;;;4992659;28;20046;-88
2022/08/19 08:01:01;;;;;;;12.20;6.10;;;27.70;99.90;;;;;;5011783;28;20026;-89
2022/08/19 08:09:15;;;;;;;10.82;4.95;;;28.20;99.90;;;;;;4990803;28;20410;-88
2022/08/19 08:11:49;;;;;;;9.55;4.78;;;28.50;99.90;;;;;;4978812;28;20066;-88
2022/08/19 08:17:24;;;;;;;16.75;5.47;;;28.90;99.10;;;;;;5178655;23;20061;-88
2022/08/19 08:19:50;;;;;;;10.23;5.22;;;29.20;98.60;;;;;;5006388;28;20039;-89
2022/08/19 08:25:07;;;;;;;13.95;5.03;;;29.40;98.00;;;;;;5007114;28;20137;-87
2022/08/19 08:27:39;;;;;;;10.10;4.80;;;29.50;97.50;;;;;;4989517;28;20077;-88
2022/08/19 08:30:09;;;;;;;10.52;5.00;;;29.60;97.40;;;;;;4996643;28;20065;-86
2022/08/19 08:32:36;;;;;;;7.80;5.05;;;29.50;97.00;;;;;;5013300;28;20023;-86
2022/08/19 08:35:04;;;;;;;12.98;5.45;;;29.60;96.90;;;;;;4980122;28;20027;-88
2022/08/19 08:37:30;;;;;;;9.88;5.05;;;29.60;96.80;;;;;;4982808;28;20050;-87
2022/08/19 08:39:56;;;;;;;11.00;5.07;;;29.80;96.50;;;;;;4980044;28;20041;-88
2022/08/19 08:42:36;;;;;;;8.73;4.72;;;29.80;95.80;;;;;;5010851;28;20030;-88
2022/08/19 08:45:21;;;;;;;11.98;5.28;;;29.90;95.10;;;;;;4998558;28;20191;-85
2022/08/19 08:47:51;;;;;;;10.98;4.85;;;30.00;95.10;;;;;;4990234;28;20040;-87
2022/08/19 08:50:41;;;;;;;11.02;5.28;;;30.10;95.00;;;;;;4978849;28;20094;-85
2022/08/19 08:53:08;;;;;;;15.30;4.60;;;30.30;94.50;;;;;;5003735;28;20073;-85
2022/08/19 08:55:34;;;;;;;9.15;4.60;;;30.70;93.50;;;;;;5012203;28;20030;-86
2022/08/19 08:58:07;;;;;;;12.60;4.43;;;30.80;93.10;;;;;;4996243;28;20042;-88
2022/08/19 09:00:38;;;;;;;6.05;4.07;;;30.90;92.70;;;;;;5007966;28;20039;-87
2022/08/19 09:03:16;;;;;;;11.23;4.47;;;30.70;92.60;;;;;;4989955;28;20029;-88
2022/08/19 09:06:07;;;;;;;12.35;4.53;;;30.60;92.60;;;;;;4976397;28;20022;-87
2022/08/19 09:08:45;;;;;;;12.27;4.75;;;30.30;93.00;;;;;;5001260;28;20041;-87
2022/08/19 09:11:34;;;;;;;9.18;4.40;;;30.30;93.20;;;;;;5001608;28;20038;-87
2022/08/19 09:14:13;;;;;;;7.45;5.07;;;30.40;92.80;;;;;;5002165;28;20035;-88
2022/08/19 09:16:40;;;;;;;13.27;5.50;;;30.70;92.50;;;;;;4980881;28;20042;-87
2022/08/19 09:19:07;;;;;;;10.15;5.20;;;30.80;92.40;;;;;;5000280;28;20061;-86
2022/08/19 09:21:34;;;;;;;14.52;5.22;;;30.90;92.00;;;;;;4991222;28;20014;-86
2022/08/19 09:24:04;;;;;;;11.38;4.97;;;30.80;92.40;;;;;;4986814;28;20039;-85
2022/08/19 09:26:34;;;;;;;12.27;4.95;;;30.80;92.60;;;;;;4979323;28;20050;-85
2022/08/19 09:29:01;;;;;;;9.80;5.10;;;31.00;92.40;;;;;;4961456;28;20026;-86
2022/08/19 09:31:29;;;;;;;9.60;5.10;;;31.00;92.10;;;;;;4982049;28;20019;-87
2022/08/19 09:33:58;;;;;;;13.70;5.75;;;31.40;92.00;;;;;;4998647;28;20019;-87
2022/08/19 09:36:28;;;;;;;12.73;5.03;;;31.90;91.40;;;;;;4981526;28;20050;-87
2022/08/19 09:38:55;;;;;;;7.93;4.38;;;32.70;90.20;;;;;;4981137;28;20223;-84
2022/08/19 09:41:24;;;;;;;13.35;4.55;;;33.50;87.90;;;;;;4983374;28;20025;-86
2022/08/19 09:43:53;;;;;;;11.80;4.57;;;33.40;86.80;;;;;;4982584;28;20617;-86
2022/08/19 09:46:23;;;;;;;13.00;4.72;;;33.70;86.40;;;;;;4999028;28;20033;-86
2022/08/19 09:48:50;;;;;;;11.88;5.30;;;34.40;84.50;;;;;;4998521;28;20082;-87
2022/08/19 09:51:19;;;;;;;14.40;4.70;;;35.10;82.10;;;;;;4977136;28;20026;-87
2022/08/19 09:53:49;;;;;;;9.30;4.15;;;35.40;79.60;;;;;;4999518;28;20026;-89
2022/08/19 09:56:17;;;;;;;7.30;3.90;;;35.00;78.80;;;;;;4988814;28;20034;-87
2022/08/19 09:58:43;;;;;;;8.82;4.20;;;35.30;78.20;;;;;;5011085;28;20030;-87
2022/08/19 10:01:14;;;;;;;7.60;4.05;;;36.30;76.00;;;;;;4978873;28;20026;-88
2022/08/19 10:03:40;;;;;;;14.10;4.25;;;37.60;73.10;;;;;;4995188;28;20030;-89
2022/08/19 10:06:06;;;;;;;12.00;4.45;;;37.80;71.20;;;;;;5012656;28;20045;-88
2022/08/19 10:08:35;;;;;;;7.72;4.40;;;38.60;69.60;;;;;;4980221;28;20030;-88
2022/08/19 10:11:03;;;;;;;10.40;4.63;;;39.30;67.80;;;;;;4983541;28;20074;-87
2022/08/19 10:13:31;;;;;;;10.18;4.40;;;38.80;66.40;;;;;;4984890;28;20414;-87
2022/08/19 10:16:08;;;;;;;13.95;4.65;;;38.00;67.20;;;;;;4999818;28;20061;-88
2022/08/19 10:18:34;;;;;;;12.57;4.10;;;37.70;66.90;;;;;;4970298;28;20014;-87
2022/08/19 10:21:08;;;;;;;11.05;4.47;;;36.90;67.70;;;;;;5001307;28;20025;-88
2022/08/19 10:23:38;;;;;;;10.02;4.40;;;36.40;68.50;;;;;;4983714;28;20033;-87
2022/08/19 10:26:06;;;;;;;12.38;4.20;;;35.70;69.70;;;;;;4988310;28;20041;-87
2022/08/19 10:28:37;;;;;;;10.20;4.82;;;35.70;70.10;;;;;;5003640;28;20101;-87
2022/08/19 10:31:09;;;;;;;19.15;4.53;;;35.90;69.70;;;;;;4980934;28;20034;-88
2022/08/19 10:33:36;;;;;;;8.77;4.40;;;35.50;69.90;;;;;;5015791;28;20030;-89
2022/08/19 10:36:09;;;;;;;13.88;5.05;;;34.90;71.10;;;;;;5014680;28;20083;-89
2022/08/19 10:38:36;;;;;;;11.55;5.20;;;34.20;71.90;;;;;;5018426;28;20045;-87
2022/08/19 10:41:13;;;;;;;10.35;5.03;;;33.00;73.20;;;;;;4999991;28;20027;-87
2022/08/19 10:43:40;;;;;;;8.77;5.05;;;32.20;75.50;;;;;;5016944;28;20038;-89
2022/08/19 10:46:13;;;;;;;15.80;5.57;;;31.80;76.20;;;;;;5000563;28;20015;-87
2022/08/19 10:48:39;;;;;;;14.70;5.00;;;31.40;77.30;;;;;;5018580;28;20031;-88
2022/08/19 10:53:55;;;;;;;12.00;5.63;;;31.00;79.00;;;;;;5016241;28;20042;-89
2022/08/19 10:59:05;;;;;;;;;;;30.90;79.50;;;;;;4994357;28;20140;-88
2022/08/19 11:01:33;;;;;;;16.27;5.50;;;30.80;80.40;;;;;;5014880;28;20004;-89
2022/08/19 11:04:04;;;;;;;16.40;7.78;;;30.80;80.90;;;;;;4997775;28;20030;-88
2022/08/19 11:06:33;;;;;;;17.40;5.82;;;30.60;81.40;;;;;;4996822;28;20085;-89
2022/08/19 11:08:59;;;;;;;12.15;5.57;;;30.40;82.40;;;;;;4980396;28;20030;-89
2022/08/19 11:11:28;;;;;;;22.02;6.82;;;30.00;85.60;;;;;;4976856;28;20088;-86
2022/08/19 11:13:55;;;;;;;21.38;6.63;;;29.50;90.90;;;;;;4992791;28;20098;-88
2022/08/19 11:16:25;;;;;;;19.80;5.85;;;29.10;92.40;;;;;;4977857;28;20030;-87
2022/08/19 11:18:55;;;;;;;20.02;7.05;;;28.70;93.50;;;;;;4995839;28;20026;-87
2022/08/19 11:21:31;;;;;;;12.10;6.20;;;28.30;95.80;;;;;;4992900;28;20030;-87
2022/08/19 11:24:00;;;;;;;16.02;7.15;;;28.00;96.20;;;;;;4992851;28;20034;-87
2022/08/19 11:26:27;;;;;;;16.88;6.55;;;27.80;97.00;;;;;;4976194;28;20030;-89
2022/08/19 11:28:54;;;;;;;25.38;6.78;;;27.70;97.70;;;;;;5013623;28;20026;-87
2022/08/19 11:31:24;;;;;;;21.67;7.97;;;27.80;98.80;;;;;;5000572;28;20026;-87
2022/08/19 11:33:53;;;;;;;19.60;7.22;;;27.90;98.90;;;;;;5008116;28;20045;-89
2022/08/19 11:36:21;;;;;;;23.90;7.80;;;28.20;98.90;;;;;;5026049;23;20116;-81
2022/08/19 11:38:49;;;;;;;20.50;6.03;;;29.00;98.50;;;;;;5001794;28;20030;-79
2022/08/19 11:41:17;;;;;;;20.75;6.28;;;30.50;96.40;;;;;;4999555;28;20057;-79
2022/08/19 11:43:43;;;;;;;21.05;7.05;;;32.30;93.90;;;;;;5000920;28;20034;-78
2022/08/19 11:46:11;;;;;;;14.38;4.80;;;34.00;90.60;;;;;;4965914;28;20118;-80
2022/08/19 11:48:38;;;;;;;27.42;5.28;;;34.80;83.70;;;;;;4982147;28;20033;-80
2022/08/19 11:51:08;;;;;;;21.88;5.05;;;34.40;82.40;;;;;;4980498;28;20030;-79
2022/08/19 11:53:35;;;;;;;22.83;5.75;;;33.60;84.00;;;;;;4983086;28;20081;-80
2022/08/19 11:56:01;;;;;;;20.33;4.35;;;32.60;85.10;;;;;;4981832;28;20131;-80
2022/08/19 11:58:28;;;;;;;20.13;5.03;;;32.80;85.10;;;;;;4981465;28;20498;-79
2022/08/19 12:00:55;;;;;;;25.58;5.57;;;34.20;83.70;;;;;;4980593;28;20026;-79
2022/08/19 12:03:21;;;;;;;17.73;4.82;;;35.70;79.30;;;;;;4977085;28;20451;-82
2022/08/19 12:05:47;;;;;;;24.23;5.75;;;35.80;77.90;;;;;;4960579;28;20027;-80
2022/08/19 12:08:13;;;;;;;23.10;5.03;;;36.70;76.80;;;;;;4973453;28;20034;-81
2022/08/19 12:10:41;;;;;;;18.85;4.88;;;38.10;74.60;;;;;;4958034;28;20488;-82
2022/08/19 12:13:13;;;;;;;24.65;5.18;;;38.70;72.50;;;;;;4957269;28;20035;-81
2022/08/19 12:15:40;;;;;;;14.27;4.95;;;38.30;71.90;;;;;;4957689;28;20090;-81
2022/08/19 12:18:08;;;;;;;14.57;4.95;;;37.10;71.40;;;;;;4956241;28;20019;-81
2022/08/19 12:20:36;;;;;;;20.63;5.35;;;35.70;73.60;;;;;;4960768;28;20031;-82
2022/08/19 12:23:03;;;;;;;18.33;5.13;;;34.70;76.00;;;;;;4961296;28;20023;-81
2022/08/19 12:25:30;;;;;;;23.65;5.70;;;33.80;77.40;;;;;;4965285;28;20785;-81
2022/08/19 12:27:57;;;;;;;17.90;5.07;;;33.70;78.20;;;;;;4966474;28;20749;-82
2022/08/19 12:30:23;;;;;;;29.33;6.72;;;34.40;77.90;;;;;;4966208;28;20020;-79
2022/08/19 12:32:50;;;;;;;19.92;6.10;;;35.40;76.30;;;;;;4967024;28;20019;-80
2022/08/19 12:35:19;;;;;;;15.52;5.72;;;36.70;74.70;;;;;;4966929;28;20106;-79
2022/08/19 12:37:46;;;;;;;19.35;5.20;;;37.10;73.00;;;;;;4966744;28;20082;-80
2022/08/19 12:40:13;;;;;;;18.85;4.97;;;36.90;72.50;;;;;;4991953;28;20026;-80
2022/08/19 12:42:43;;;;;;;15.85;4.88;;;36.10;72.90;;;;;;4998429;28;20038;-82
2022/08/19 12:45:13;;;;;;;13.18;5.07;;;34.70;75.30;;;;;;4996148;28;20075;-80
2022/08/19 12:47:39;;;;;;;18.80;6.32;;;33.60;77.50;;;;;;4996640;28;20061;-82
2022/08/19 12:50:09;;;;;;;15.95;6.60;;;32.80;79.50;;;;;;4996780;28;20038;-82
2022/08/19 12:52:37;;;;;;;18.35;8.00;;;32.30;81.40;;;;;;4997755;28;20063;-82
2022/08/19 12:55:05;;;;;;;17.08;6.15;;;31.70;83.10;;;;;;4986960;28;20065;-79
2022/08/19 12:57:34;;;;;;;19.60;6.20;;;31.30;84.30;;;;;;4978689;28;20026;-82
2022/08/19 13:00:13;;;;;;;16.77;5.75;;;31.10;85.20;;;;;;4978636;28;20023;-80
2022/08/19 13:02:41;;;;;;;19.80;4.60;;;30.70;85.10;;;;;;4962060;28;20057;-81
2022/08/19 13:05:09;;;;;;;14.10;5.38;;;30.40;86.30;;;;;;4976689;28;20027;-83
2022/08/19 13:07:37;;;;;;;20.75;5.28;;;30.40;86.40;;;;;;4961191;28;20035;-82
2022/08/19 13:10:03;;;;;;;17.88;5.00;;;30.10;85.00;;;;;;4975879;28;20105;-80
2022/08/19 13:12:29;;;;;;;20.85;5.40;;;29.90;85.40;;;;;;4982487;28;20027;-80
2022/08/19 13:14:55;;;;;;;17.30;5.45;;;29.80;86.50;;;;;;4978427;28;20121;-80
2022/08/19 13:17:21;;;;;;;19.60;5.70;;;29.70;87.40;;;;;;4978448;28;20053;-81
2022/08/19 13:19:47;;;;;;;14.73;5.22;;;29.60;88.20;;;;;;4976836;28;20061;-81
2022/08/19 13:22:13;;;;;;;19.08;5.57;;;29.50;87.70;;;;;;4975050;28;20031;-78
2022/08/19 13:24:39;;;;;;;18.20;6.00;;;29.50;87.90;;;;;;4961246;28;20038;-81
2022/08/19 13:27:06;;;;;;;21.17;6.00;;;29.50;88.00;;;;;;4969782;28;20438;-85
2022/08/19 13:35:02;;;;;;;23.48;5.63;;;29.20;87.60;;;;;;4960038;29;20027;-80
2022/08/19 13:37:43;;;;;;;17.75;4.65;;;29.00;86.90;;;;;;4960976;28;20499;-78
2022/08/19 13:40:16;;;;;;;21.25;5.63;;;28.90;87.50;;;;;;4975438;28;20039;-80
2022/08/19 13:42:46;;;;;;;20.58;5.30;;;28.70;88.00;;;;;;4982661;28;20371;-81
2022/08/19 13:45:14;;;;;;;16.30;5.25;;;28.60;89.20;;;;;;4981584;28;20041;-79
2022/08/19 13:47:42;;;;;;;20.00;5.13;;;28.50;89.20;;;;;;4967169;28;20091;-81
2022/08/19 13:50:15;;;;;;;17.85;5.20;;;28.40;90.00;;;;;;4979956;28;20049;-81
2022/08/19 13:52:42;;;;;;;19.40;5.30;;;28.30;91.00;;;;;;4981738;28;20073;-80
2022/08/19 13:55:10;;;;;;;18.40;5.72;;;28.30;91.20;;;;;;4984449;28;20023;-80
2022/08/19 13:57:38;;;;;;;21.50;5.63;;;28.30;91.70;;;;;;4980892;28;20031;-83
2022/08/19 14:00:09;;;;;;;20.50;5.07;;;28.20;92.00;;;;;;4984281;28;20023;-82
2022/08/19 14:02:37;;;;;;;15.88;4.65;;;28.10;91.30;;;;;;4979283;28;20035;-81
2022/08/19 14:05:04;;;;;;;20.13;5.28;;;28.00;91.40;;;;;;4962387;28;20391;-79
2022/08/19 14:07:30;;;;;;;19.60;5.22;;;28.00;92.00;;;;;;4962769;28;20049;-85